Time;durP1;ratioP1;P1;durP2;ratioP2;P2;SDS_P1;SDS_P2;PMS_P1;PMS_P2;Temp;Humidity;BMP_temperature;BMP_pressure;BME280_temperature;BME280_humidity;BME280_pressure;Samples;Min_cycle;Max_cycle;Signal;HPM_P1;HPM_P2
2023/05/29 00:00:45;;;;;;;9.50;2.10;;;;;;;9.45;65.20;100560.77;108903;1266;22577;-80
2023/05/29 00:03:32;;;;;;;9.90;1.80;;;;;;;9.41;65.15;100559.05;108439;1266;22549;-80
2023/05/29 00:06:05;;;;;;;7.60;1.70;;;;;;;9.36;65.36;100553.98;108636;1266;24218;-80
2023/05/29 00:08:36;;;;;;;8.00;1.70;;;;;;;9.31;65.56;100550.16;108849;1267;22599;-81
2023/05/29 00:11:08;;;;;;;8.30;1.60;;;;;;;9.25;65.70;100549.61;108641;1266;22552;-80
2023/05/29 00:13:39;;;;;;;9.10;1.50;;;;;;;9.20;65.76;100550.62;110826;1267;22187;-80
2023/05/29 00:16:11;;;;;;;10.50;1.90;;;;;;;9.15;65.87;100546.84;109451;1260;22651;-80
2023/05/29 00:18:45;;;;;;;8.30;1.60;;;;;;;9.13;65.96;100549.00;107760;1270;24137;-80
2023/05/29 00:21:16;;;;;;;12.10;2.10;;;;;;;9.09;66.06;100551.56;107785;1270;23296;-79
2023/05/29 00:23:49;;;;;;;13.20;2.20;;;;;;;9.05;66.19;100551.90;107785;1267;22519;-80
2023/05/29 00:26:21;;;;;;;11.20;2.10;;;;;;;9.01;66.15;100549.44;107692;1269;24076;-80
2023/05/29 00:28:52;;;;;;;7.40;1.70;;;;;;;8.99;66.26;100545.95;108079;1268;22550;-79
2023/05/29 00:31:24;;;;;;;12.70;1.80;;;;;;;8.94;66.28;100546.03;107746;1267;23503;-81
2023/05/29 00:33:55;;;;;;;9.20;1.70;;;;;;;8.90;66.58;100545.74;107520;1272;22849;-79
2023/05/29 00:36:28;;;;;;;10.00;1.90;;;;;;;8.86;66.88;100547.98;108143;1267;22554;-82
2023/05/29 00:38:59;;;;;;;9.30;2.10;;;;;;;8.81;67.05;100543.39;108453;1266;23338;-79
2023/05/29 00:41:30;;;;;;;10.30;2.00;;;;;;;8.78;67.18;100543.54;107714;1267;22475;-82
2023/05/29 00:44:01;;;;;;;6.20;1.60;;;;;;;8.75;67.26;100538.62;107855;1267;22550;-79
2023/05/29 00:46:33;;;;;;;8.10;1.70;;;;;;;8.73;67.30;100542.23;108371;1265;24939;-81
2023/05/29 00:49:05;;;;;;;10.90;1.80;;;;;;;8.69;67.46;100541.98;108445;1272;22517;-81
2023/05/29 00:51:36;;;;;;;10.20;2.20;;;;;;;8.65;67.55;100537.62;107741;1267;22528;-81
2023/05/29 00:54:13;;;;;;;6.10;1.20;;;;;;;8.62;67.63;100537.39;108535;1268;24163;-81
2023/05/29 00:56:44;;;;;;;8.70;1.70;;;;;;;8.59;67.84;100537.63;108278;1270;22561;-79
2023/05/29 00:59:15;;;;;;;9.70;1.90;;;;;;;8.54;68.17;100533.06;108573;1267;23341;-81
2023/05/29 01:01:46;;;;;;;7.90;1.80;;;;;;;8.48;68.46;100533.14;107723;1267;23609;-80
2023/05/29 01:04:18;;;;;;;9.90;1.80;;;;;;;8.43;68.66;100532.38;107732;1267;22537;-80
2023/05/29 01:06:49;;;;;;;8.40;1.70;;;;;;;8.38;68.72;100529.14;107741;1272;23297;-80
2023/05/29 01:09:20;;;;;;;11.70;2.40;;;;;;;8.34;68.98;100533.85;108780;1270;22525;-80
2023/05/29 01:12:00;;;;;;;6.00;1.30;;;;;;;8.31;69.07;100540.09;108311;1271;23338;-80
2023/05/29 01:14:41;;;;;;;10.00;1.60;;;;;;;8.29;69.32;100538.83;108791;1268;22553;-81
2023/05/29 01:17:15;;;;;;;;;;;;;;;8.26;69.45;100539.02;107565;1272;22496;-79
2023/05/29 01:20:09;;;;;;;10.40;2.00;;;;;;;8.22;69.60;100541.05;107724;1268;22521;-79
2023/05/29 01:23:03;;;;;;;10.00;1.50;;;;;;;8.17;69.55;100541.52;110770;1266;23455;-80
2023/05/29 01:25:49;;;;;;;9.70;1.80;;;;;;;8.13;69.71;100542.42;110723;1266;22565;-81
2023/05/29 01:28:26;;;;;;;9.10;2.00;;;;;;;8.08;69.84;100538.69;109102;1264;22580;-81
2023/05/29 01:31:01;;;;;;;10.60;2.30;;;;;;;8.04;69.86;100539.25;109091;1270;23063;-81
2023/05/29 01:33:33;;;;;;;12.30;1.90;;;;;;;8.01;69.84;100538.98;108927;1257;22544;-81
2023/05/29 01:36:05;;;;;;;12.60;1.90;;;;;;;7.97;69.92;100540.53;109036;1266;22555;-80
2023/05/29 01:38:36;;;;;;;10.80;1.80;;;;;;;7.95;70.09;100540.00;109774;1272;22575;-81
2023/05/29 01:41:07;;;;;;;12.20;2.10;;;;;;;7.93;70.17;100536.66;108994;1266;22517;-80
2023/05/29 01:43:39;;;;;;;9.20;1.70;;;;;;;7.92;70.19;100537.02;109107;1269;25373;-81
2023/05/29 01:46:10;;;;;;;13.90;2.00;;;;;;;7.89;70.31;100537.34;109200;1271;24299;-81
2023/05/29 01:48:41;;;;;;;7.70;1.70;;;;;;;7.88;70.54;100532.07;109355;1266;22617;-80
2023/05/29 01:51:13;;;;;;;10.20;1.90;;;;;;;7.86;70.48;100533.27;110231;1266;22252;-83
2023/05/29 01:53:44;;;;;;;7.30;1.50;;;;;;;7.85;70.68;100533.61;109792;1263;22463;-80
2023/05/29 01:56:15;;;;;;;13.00;2.00;;;;;;;7.84;70.82;100530.48;109116;1269;22680;-81
2023/05/29 01:58:47;;;;;;;11.30;2.20;;;;;;;7.85;70.79;100525.85;109143;1267;22502;-81
2023/05/29 02:01:18;;;;;;;11.40;1.90;;;;;;;7.85;70.79;100526.01;109056;1267;22575;-83
2023/05/29 02:03:48;;;;;;;8.10;1.70;;;;;;;7.84;71.04;100523.56;108965;1272;26499;-81
2023/05/29 02:06:19;;;;;;;12.90;2.10;;;;;;;7.84;71.18;100525.10;108675;1269;22601;-80
2023/05/29 02:08:50;;;;;;;12.00;1.80;;;;;;;7.82;71.31;100524.66;108047;1266;25348;-80
2023/05/29 02:11:21;;;;;;;10.90;2.50;;;;;;;7.81;71.40;100527.34;107856;1272;23041;-79
2023/05/29 02:13:52;;;;;;;11.60;2.10;;;;;;;7.78;71.57;100530.08;107901;1271;25910;-82
2023/05/29 02:16:23;;;;;;;10.90;1.90;;;;;;;7.75;71.73;100529.95;108916;1265;24468;-80
2023/05/29 02:18:54;;;;;;;8.70;1.90;;;;;;;7.73;71.76;100530.80;107860;1272;22501;-79
2023/05/29 02:21:24;;;;;;;12.80;2.10;;;;;;;7.71;71.86;100527.85;108112;1266;24222;-79
2023/05/29 02:23:55;;;;;;;9.30;1.70;;;;;;;7.69;71.95;100527.77;107992;1266;23684;-79
2023/05/29 02:26:26;;;;;;;10.80;1.70;;;;;;;7.66;72.11;100528.77;108108;1264;25214;-79
2023/05/29 02:28:57;;;;;;;11.80;2.20;;;;;;;7.65;72.27;100528.83;108321;1266;22636;-78
2023/05/29 02:31:28;;;;;;;8.30;1.80;;;;;;;7.62;72.42;100527.39;107583;1267;22542;-77
2023/05/29 02:33:59;;;;;;;10.50;2.10;;;;;;;7.60;72.45;100531.05;107708;1272;23894;-77
2023/05/29 02:36:30;;;;;;;8.60;1.80;;;;;;;7.57;72.77;100531.72;107621;1272;23339;-77
2023/05/29 02:39:00;;;;;;;14.10;2.20;;;;;;;7.57;73.07;100532.84;107666;1266;22642;-79
2023/05/29 02:41:31;;;;;;;8.40;1.50;;;;;;;7.55;73.49;100533.23;107627;1272;26515;-79
2023/05/29 02:44:02;;;;;;;9.00;1.40;;;;;;;7.51;73.38;100534.01;107538;1266;23899;-78
2023/05/29 02:46:33;;;;;;;9.20;1.80;;;;;;;7.47;73.34;100531.14;107411;1261;25391;-77
2023/05/29 02:49:04;;;;;;;8.90;1.40;;;;;;;7.41;73.32;100530.06;107464;1272;22601;-77
2023/05/29 02:51:34;;;;;;;11.10;1.50;;;;;;;7.34;73.38;100526.65;107597;1267;25319;-77
2023/05/29 02:54:05;;;;;;;8.00;1.50;;;;;;;7.29;73.33;100527.06;107637;1272;22576;-77
2023/05/29 02:56:36;;;;;;;10.90;1.80;;;;;;;7.25;73.38;100524.52;107721;1269;24185;-77
2023/05/29 02:59:07;;;;;;;10.80;1.70;;;;;;;7.21;73.43;100517.84;107641;1266;22517;-80
2023/05/29 03:01:38;;;;;;;10.70;1.90;;;;;;;7.19;73.34;100523.46;107596;1266;22599;-76
2023/05/29 03:04:09;;;;;;;7.70;1.80;;;;;;;7.15;73.48;100524.61;107560;1272;22615;-76
2023/05/29 03:06:40;;;;;;;9.60;2.10;;;;;;;7.11;73.65;100520.57;107622;1266;22662;-77
2023/05/29 03:09:12;;;;;;;9.40;1.80;;;;;;;7.07;73.85;100519.10;107531;1266;22534;-77
2023/05/29 03:11:44;;;;;;;9.60;2.10;;;;;;;7.05;74.02;100521.02;107533;1266;22550;-76
2023/05/29 03:14:15;;;;;;;8.20;1.70;;;;;;;7.03;74.10;100524.17;107628;1270;22536;-76
2023/05/29 03:16:46;;;;;;;11.30;1.80;;;;;;;7.01;74.11;100528.84;107639;1272;22517;-77
2023/05/29 03:19:17;;;;;;;9.80;2.40;;;;;;;6.98;74.20;100530.75;107571;1267;22536;-78
2023/05/29 03:21:47;;;;;;;9.00;1.90;;;;;;;6.97;74.38;100533.41;107611;1268;22525;-78
2023/05/29 03:24:18;;;;;;;12.30;1.90;;;;;;;6.96;74.82;100536.16;107566;1266;25315;-77
2023/05/29 03:26:49;;;;;;;9.00;2.40;;;;;;;6.96;75.02;100532.58;107601;1266;22517;-77
2023/05/29 03:29:20;;;;;;;11.90;3.00;;;;;;;6.95;75.11;100538.54;107667;1266;25492;-79
2023/05/29 03:31:51;;;;;;;13.00;2.50;;;;;;;6.94;75.39;100538.11;107594;1266;22522;-77
2023/05/29 03:34:22;;;;;;;10.00;1.90;;;;;;;6.94;75.48;100540.17;107495;1272;24562;-78
2023/05/29 03:36:52;;;;;;;11.20;2.00;;;;;;;6.94;75.71;100539.77;107469;1266;22534;-75
2023/05/29 03:39:23;;;;;;;10.50;2.00;;;;;;;6.95;75.86;100548.38;107528;1266;25491;-78
2023/05/29 03:41:54;;;;;;;12.10;1.70;;;;;;;6.94;75.98;100551.19;107529;1269;24196;-78
2023/05/29 03:44:25;;;;;;;11.00;2.30;;;;;;;6.94;76.17;100553.41;107747;1261;22523;-78
2023/05/29 03:46:55;;;;;;;12.00;2.40;;;;;;;6.95;76.30;100557.58;107745;1269;26586;-77
2023/05/29 03:49:26;;;;;;;10.90;1.80;;;;;;;6.95;76.37;100557.73;107659;1265;22557;-78
2023/05/29 03:51:57;;;;;;;8.60;1.70;;;;;;;6.98;76.64;100560.21;107616;1249;23050;-78
2023/05/29 03:54:28;;;;;;;10.60;2.00;;;;;;;7.00;76.71;100554.80;107654;1266;23352;-80
2023/05/29 03:57:02;;;;;;;9.80;1.70;;;;;;;7.03;76.88;100559.91;107714;1266;22521;-78
2023/05/29 03:59:34;;;;;;;11.60;2.00;;;;;;;7.07;76.98;100559.31;107660;1266;25291;-79
2023/05/29 04:02:06;;;;;;;14.40;2.80;;;;;;;7.12;77.11;100561.22;108977;1269;25589;-78
2023/05/29 04:04:39;;;;;;;14.10;2.10;;;;;;;7.17;77.23;100561.77;107600;1267;25387;-79
2023/05/29 04:07:10;;;;;;;10.70;1.80;;;;;;;7.24;77.38;100559.76;108339;1266;24241;-78
2023/05/29 04:09:43;;;;;;;12.90;3.00;;;;;;;7.32;77.54;100560.59;107833;1254;23310;-78
2023/05/29 04:12:15;;;;;;;16.30;2.50;;;;;;;7.41;77.83;100557.70;107667;1266;22514;-80
2023/05/29 04:14:46;;;;;;;17.10;2.80;;;;;;;7.50;77.52;100556.98;108256;1264;22534;-79
2023/05/29 04:17:17;;;;;;;16.90;3.60;;;;;;;7.59;77.68;100561.48;107670;1266;24186;-79
2023/05/29 04:19:48;;;;;;;17.80;2.70;;;;;;;7.69;78.11;100561.38;107501;1267;25328;-78
2023/05/29 04:22:19;;;;;;;11.70;2.50;;;;;;;7.78;78.13;100565.73;107665;1266;25235;-79
2023/05/29 04:24:50;;;;;;;12.90;2.40;;;;;;;7.88;77.87;100568.68;107557;1271;22533;-78
2023/05/29 04:27:20;;;;;;;9.70;2.30;;;;;;;7.98;78.65;100572.36;107927;1266;23791;-78
2023/05/29 04:29:51;;;;;;;15.30;2.80;;;;;;;8.06;78.58;100577.54;107821;1266;27018;-79
2023/05/29 04:32:25;;;;;;;9.50;2.00;;;;;;;8.15;78.70;100576.52;107792;1266;25533;-79
2023/05/29 04:34:56;;;;;;;15.40;2.60;;;;;;;8.25;78.83;100582.11;107605;1272;22620;-78
2023/05/29 04:37:28;;;;;;;14.90;2.90;;;;;;;8.33;78.98;100580.61;107811;1266;22569;-78
2023/05/29 04:39:59;;;;;;;13.40;3.00;;;;;;;8.43;79.10;100586.91;107826;1272;25194;-78
2023/05/29 04:42:33;;;;;;;19.80;2.80;;;;;;;8.54;79.09;100585.13;107612;1269;22518;-78
2023/05/29 04:45:05;;;;;;;16.60;2.90;;;;;;;8.66;79.43;100592.42;107530;1266;24180;-77
2023/05/29 04:47:36;;;;;;;13.60;2.60;;;;;;;8.80;79.70;100594.98;110773;1266;22334;-79
2023/05/29 04:50:09;;;;;;;13.30;2.90;;;;;;;8.94;79.82;100592.52;110804;1266;22956;-78
2023/05/29 04:52:41;;;;;;;14.00;2.70;;;;;;;9.08;80.17;100590.58;110763;1266;22986;-79
2023/05/29 04:55:13;;;;;;;14.00;2.90;;;;;;;9.23;80.00;100589.41;110425;1271;26571;-78
2023/05/29 04:57:44;;;;;;;17.50;2.80;;;;;;;9.38;79.73;100590.05;107690;1271;22803;-78
2023/05/29 05:00:17;;;;;;;15.00;2.60;;;;;;;9.53;79.58;100588.73;107655;1266;22532;-78
2023/05/29 05:02:50;;;;;;;18.00;3.50;;;;;;;9.68;79.57;100588.43;110839;1271;22465;-78
2023/05/29 05:05:21;;;;;;;17.20;3.20;;;;;;;9.81;79.32;100588.41;107942;1271;22648;-77
2023/05/29 05:07:52;;;;;;;13.10;2.90;;;;;;;9.94;79.41;100590.61;107809;1266;22534;-78
2023/05/29 05:10:23;;;;;;;15.70;3.20;;;;;;;10.09;79.51;100591.16;108252;1266;23469;-78
2023/05/29 05:12:53;;;;;;;15.00;2.50;;;;;;;10.23;79.44;100594.67;108374;1272;22529;-78
2023/05/29 05:15:24;;;;;;;13.70;3.10;;;;;;;10.40;79.63;100592.42;107700;1266;22525;-79
2023/05/29 05:17:55;;;;;;;12.10;2.60;;;;;;;10.56;79.54;100586.09;107631;1266;25478;-78
2023/05/29 05:20:26;;;;;;;14.00;3.20;;;;;;;10.70;79.43;100589.05;107832;1269;22703;-79
2023/05/29 05:22:57;;;;;;;16.90;2.60;;;;;;;10.84;79.27;100593.08;107813;1269;22551;-78
2023/05/29 05:25:28;;;;;;;12.00;3.30;;;;;;;10.99;79.27;100589.84;107660;1266;22549;-79
2023/05/29 05:27:58;;;;;;;9.20;2.10;;;;;;;11.13;78.67;100587.05;107556;1271;22725;-78
2023/05/29 05:30:29;;;;;;;11.60;2.30;;;;;;;11.27;78.45;100590.14;107523;1266;22856;-79
2023/05/29 05:33:00;;;;;;;12.60;2.10;;;;;;;11.49;78.41;100589.41;107532;1272;22530;-79
2023/05/29 05:35:31;;;;;;;13.40;2.60;;;;;;;11.73;76.81;100599.23;107571;1266;22566;-79
2023/05/29 05:38:01;;;;;;;13.80;2.00;;;;;;;11.88;77.04;100592.05;107542;1264;24219;-78
2023/05/29 05:40:32;;;;;;;18.40;2.70;;;;;;;12.01;77.31;100595.40;107526;1267;22547;-78
2023/05/29 05:43:03;;;;;;;11.60;2.70;;;;;;;12.13;77.23;100595.66;107589;1272;24363;-78
2023/05/29 05:45:34;;;;;;;15.00;2.80;;;;;;;12.25;77.04;100598.48;107596;1266;26506;-78
2023/05/29 05:48:05;;;;;;;11.30;2.10;;;;;;;12.39;76.97;100601.48;107608;1266;22540;-78
2023/05/29 05:50:35;;;;;;;9.20;2.00;;;;;;;12.51;76.26;100602.86;107572;1266;22601;-79
2023/05/29 05:53:06;;;;;;;11.20;2.10;;;;;;;12.63;75.79;100601.16;107636;1266;24219;-78
2023/05/29 05:55:37;;;;;;;9.50;2.30;;;;;;;12.77;75.60;100597.58;107668;1264;24221;-78
2023/05/29 05:58:07;;;;;;;10.00;1.80;;;;;;;12.89;75.29;100597.36;107646;1266;22570;-79
2023/05/29 06:00:38;;;;;;;13.70;2.30;;;;;;;13.07;75.53;100600.66;107452;1266;26268;-79
2023/05/29 06:03:09;;;;;;;10.60;2.10;;;;;;;13.23;74.93;100598.70;107486;1266;22551;-78
2023/05/29 06:05:41;;;;;;;14.90;1.90;;;;;;;13.35;74.04;100601.60;107452;1266;24081;-79
2023/05/29 06:08:15;;;;;;;13.40;1.70;;;;;;;13.44;72.93;100603.47;107527;1269;25316;-79
2023/05/29 06:10:46;;;;;;;14.30;1.90;;;;;;;13.51;72.20;100603.92;110805;1266;22223;-79
2023/05/29 06:13:17;;;;;;;9.50;1.60;;;;;;;13.61;72.65;100601.25;110822;1272;22126;-79
2023/05/29 06:15:47;;;;;;;10.60;1.80;;;;;;;13.77;71.79;100602.85;110818;1272;22217;-79
2023/05/29 06:18:18;;;;;;;10.10;1.70;;;;;;;13.88;71.17;100605.75;110779;1269;22200;-79
2023/05/29 06:20:52;;;;;;;8.20;1.50;;;;;;;14.05;71.26;100610.83;110730;1265;22286;-80
2023/05/29 06:23:22;;;;;;;11.60;1.70;;;;;;;14.24;70.53;100609.96;110800;1272;22238;-79
2023/05/29 06:25:53;;;;;;;10.20;1.50;;;;;;;14.38;69.87;100606.77;109719;1271;22630;-79
2023/05/29 06:28:25;;;;;;;11.40;1.70;;;;;;;14.51;69.76;100604.42;107636;1265;23104;-79
2023/05/29 06:30:57;;;;;;;9.10;1.40;;;;;;;14.65;69.16;100610.47;107526;1271;22519;-78
2023/05/29 06:33:29;;;;;;;8.50;1.80;;;;;;;14.77;68.76;100602.60;107579;1266;22533;-79
2023/05/29 06:36:00;;;;;;;12.20;1.80;;;;;;;14.88;68.46;100604.71;107557;1269;25580;-79
2023/05/29 06:38:31;;;;;;;15.40;3.00;;;;;;;15.01;68.16;100607.21;107590;1271;22550;-79
2023/05/29 06:41:01;;;;;;;12.20;1.90;;;;;;;15.08;67.55;100610.23;107589;1269;22579;-79
2023/05/29 06:43:33;;;;;;;19.00;2.60;;;;;;;15.15;67.33;100614.00;107598;1271;25420;-78
2023/05/29 06:46:04;;;;;;;15.20;2.20;;;;;;;15.20;67.11;100614.23;107633;1271;22516;-79
2023/05/29 06:48:36;;;;;;;10.60;1.90;;;;;;;15.27;67.14;100616.42;107699;1266;22530;-79
2023/05/29 06:51:08;;;;;;;14.20;2.20;;;;;;;15.37;66.69;100619.70;107613;1271;22524;-79
2023/05/29 06:53:39;;;;;;;9.20;1.50;;;;;;;15.47;65.92;100621.08;107548;1272;25344;-79
2023/05/29 06:56:11;;;;;;;9.60;1.90;;;;;;;15.56;65.44;100620.15;107492;1266;25482;-79
2023/05/29 06:58:42;;;;;;;10.80;1.70;;;;;;;15.66;64.84;100623.73;107421;1266;24324;-79
2023/05/29 07:01:12;;;;;;;12.80;1.60;;;;;;;15.75;64.59;100624.16;107491;1269;22522;-79
2023/05/29 07:03:43;;;;;;;8.70;1.40;;;;;;;15.83;64.37;100627.69;107505;1266;23014;-79
2023/05/29 07:06:15;;;;;;;12.70;1.50;;;;;;;15.93;64.66;100624.55;107593;1266;22581;-79
2023/05/29 07:08:48;;;;;;;9.70;1.40;;;;;;;16.06;64.47;100621.41;107661;1261;22517;-79
2023/05/29 07:11:19;;;;;;;15.80;1.50;;;;;;;16.22;64.19;100623.14;107611;1272;25389;-79
2023/05/29 07:13:50;;;;;;;12.30;2.80;;;;;;;16.37;63.85;100626.39;107452;1272;22514;-78
2023/05/29 07:16:21;;;;;;;9.60;1.20;;;;;;;16.48;63.32;100626.89;107551;1269;22515;-79
2023/05/29 07:18:52;;;;;;;6.70;1.90;;;;;;;16.61;63.08;100621.22;107539;1272;22544;-79
2023/05/29 07:21:22;;;;;;;7.20;1.20;;;;;;;16.74;62.86;100625.73;107559;1266;22531;-79
2023/05/29 07:23:54;;;;;;;9.30;1.30;;;;;;;16.85;62.54;100630.50;107554;1269;24212;-79
2023/05/29 07:26:25;;;;;;;8.50;1.10;;;;;;;16.96;60.55;100628.00;107523;1264;22523;-79
2023/05/29 07:28:56;;;;;;;10.40;1.40;;;;;;;17.08;60.54;100627.26;107521;1272;23925;-79
2023/05/29 07:31:27;;;;;;;11.10;1.10;;;;;;;17.20;60.63;100626.66;107608;1266;23744;-79
2023/05/29 07:33:58;;;;;;;7.50;1.10;;;;;;;17.33;60.36;100624.39;107564;1272;22645;-78
2023/05/29 07:36:32;;;;;;;11.10;1.20;;;;;;;17.44;59.28;100625.95;107595;1266;22536;-78
2023/05/29 07:39:05;;;;;;;8.20;1.10;;;;;;;17.53;59.00;100629.59;107596;1272;26500;-79
2023/05/29 07:41:36;;;;;;;9.50;1.00;;;;;;;17.61;59.00;100630.86;110791;1266;22717;-79
2023/05/29 07:44:07;;;;;;;4.90;0.70;;;;;;;17.71;57.86;100624.98;110788;1267;22206;-79
2023/05/29 07:46:39;;;;;;;7.20;1.20;;;;;;;17.86;56.58;100627.01;110807;1271;22092;-79
2023/05/29 07:49:10;;;;;;;6.00;0.90;;;;;;;17.96;56.50;100626.55;110667;1272;22173;-80
2023/05/29 07:51:41;;;;;;;6.60;0.70;;;;;;;18.08;56.21;100628.45;110795;1265;22192;-79
2023/05/29 07:54:11;;;;;;;6.50;0.70;;;;;;;18.20;55.05;100630.38;110854;1266;23104;-79
2023/05/29 07:56:43;;;;;;;9.50;0.70;;;;;;;18.31;54.17;100634.31;110816;1269;22968;-80
2023/05/29 07:59:14;;;;;;;6.60;0.80;;;;;;;18.42;53.51;100635.23;110587;1272;22865;-80
2023/05/29 08:01:45;;;;;;;5.50;1.00;;;;;;;18.50;53.01;100637.30;110795;1266;22826;-79
2023/05/29 08:04:16;;;;;;;5.50;0.70;;;;;;;18.59;51.21;100637.20;110812;1269;22225;-80
2023/05/29 08:06:47;;;;;;;5.20;0.60;;;;;;;18.70;50.58;100634.38;110852;1272;22232;-79
2023/05/29 08:09:18;;;;;;;4.50;0.70;;;;;;;18.78;50.57;100635.40;107773;1272;22537;-79
2023/05/29 08:11:49;;;;;;;9.90;0.70;;;;;;;18.85;49.82;100635.91;107679;1271;24115;-79
2023/05/29 08:14:20;;;;;;;12.10;0.80;;;;;;;18.91;49.42;100633.55;110804;1266;22161;-79
2023/05/29 08:16:54;;;;;;;5.50;0.70;;;;;;;18.98;48.99;100635.75;110695;1269;22373;-80
2023/05/29 08:19:27;;;;;;;6.30;0.70;;;;;;;19.05;46.75;100637.99;110807;1265;23219;-79
2023/05/29 08:21:58;;;;;;;9.00;0.90;;;;;;;19.09;47.49;100640.48;110796;1272;23329;-80
2023/05/29 08:24:29;;;;;;;3.40;0.60;;;;;;;19.15;47.45;100638.37;110774;1267;22105;-79
2023/05/29 08:27:02;;;;;;;3.80;0.70;;;;;;;19.25;47.02;100639.19;110117;1269;25434;-79
2023/05/29 08:29:33;;;;;;;7.10;1.00;;;;;;;19.34;45.98;100637.79;107689;1271;22515;-79
2023/05/29 08:32:04;;;;;;;6.60;0.80;;;;;;;19.43;45.27;100637.13;107682;1269;22516;-79
2023/05/29 08:34:35;;;;;;;4.20;0.80;;;;;;;19.51;45.35;100633.90;107646;1265;22514;-79
2023/05/29 08:37:06;;;;;;;3.30;0.50;;;;;;;19.58;45.37;100635.05;107596;1269;24386;-79
2023/05/29 08:39:37;;;;;;;3.40;0.60;;;;;;;19.61;43.54;100630.80;107599;1266;22537;-79
2023/05/29 08:42:14;;;;;;;6.20;0.70;;;;;;;19.62;43.47;100637.33;108019;1262;24498;-79
2023/05/29 08:44:49;;;;;;;6.60;0.60;;;;;;;19.67;43.34;100629.02;109043;1269;24245;-79
2023/05/29 08:47:22;;;;;;;6.50;0.80;;;;;;;19.74;43.08;100635.95;110038;1269;22465;-79
2023/05/29 08:49:55;;;;;;;4.10;0.70;;;;;;;19.84;43.64;100639.39;107768;1266;23337;-80
2023/05/29 08:52:27;;;;;;;4.40;0.70;;;;;;;19.92;42.82;100639.11;109707;1266;22598;-79
2023/05/29 08:54:58;;;;;;;5.50;0.70;;;;;;;19.98;42.76;100641.31;109593;1271;22638;-79
2023/05/29 08:57:32;;;;;;;5.60;0.80;;;;;;;20.03;42.41;100637.64;107662;1266;24729;-80
2023/05/29 09:00:08;;;;;;;4.50;0.70;;;;;;;20.09;42.15;100636.23;107631;1266;24146;-78
2023/05/29 09:02:39;;;;;;;5.70;0.80;;;;;;;20.08;41.83;100638.04;109008;1266;24124;-78
2023/05/29 09:05:12;;;;;;;4.40;0.70;;;;;;;20.08;42.15;100637.16;107779;1269;25040;-79
2023/05/29 09:07:43;;;;;;;7.50;0.80;;;;;;;20.12;41.81;100630.52;108097;1256;25993;-79
2023/05/29 09:10:16;;;;;;;7.00;0.80;;;;;;;20.19;42.04;100632.23;108157;1269;22510;-79
2023/05/29 09:12:49;;;;;;;4.50;0.70;;;;;;;20.28;42.23;100631.13;109527;1259;25442;-79
2023/05/29 09:15:22;;;;;;;8.50;0.70;;;;;;;20.33;41.87;100629.92;109540;1271;24180;-79
2023/05/29 09:17:54;;;;;;;5.50;0.90;;;;;;;20.40;41.98;100633.74;108722;1269;25607;-79
2023/05/29 09:20:27;;;;;;;5.50;0.80;;;;;;;20.44;41.75;100633.84;107671;1257;22753;-79
2023/05/29 09:23:00;;;;;;;3.80;0.80;;;;;;;20.48;41.89;100632.17;107580;1269;22523;-79
2023/05/29 09:25:32;;;;;;;5.70;0.70;;;;;;;20.51;41.62;100634.81;107514;1266;22543;-79
2023/05/29 09:28:07;;;;;;;7.00;0.80;;;;;;;20.54;41.21;100632.41;107496;1260;25338;-79
2023/05/29 09:30:42;;;;;;;4.80;0.80;;;;;;;20.56;41.29;100635.05;107525;1260;22606;-78
2023/05/29 09:33:14;;;;;;;6.70;1.00;;;;;;;20.61;41.54;100638.02;107708;1266;23927;-78
2023/05/29 09:35:47;;;;;;;4.50;0.70;;;;;;;20.63;40.93;100634.65;110755;1269;22887;-79
2023/05/29 09:38:19;;;;;;;6.40;1.00;;;;;;;20.65;41.48;100636.30;109662;1269;22598;-78
2023/05/29 09:40:50;;;;;;;8.50;0.80;;;;;;;20.71;41.63;100638.38;107606;1269;22520;-78
2023/05/29 09:43:23;;;;;;;7.90;1.50;;;;;;;20.76;41.17;100636.16;107319;1259;22529;-78
2023/05/29 09:45:54;;;;;;;10.60;1.30;;;;;;;20.80;40.82;100635.34;107462;1272;25271;-78
2023/05/29 09:48:27;;;;;;;11.60;1.30;;;;;;;20.83;40.64;100631.98;107526;1272;23925;-78
2023/05/29 09:50:58;;;;;;;6.50;0.90;;;;;;;20.89;40.88;100630.96;109751;1269;25384;-79
2023/05/29 09:53:30;;;;;;;4.60;1.00;;;;;;;20.97;40.09;100630.26;107539;1269;22527;-79
2023/05/29 09:56:02;;;;;;;8.10;1.20;;;;;;;21.00;40.09;100629.89;107520;1260;22515;-79
2023/05/29 09:58:35;;;;;;;7.90;1.00;;;;;;;21.06;39.75;100625.95;107509;1266;26530;-79
2023/05/29 10:01:06;;;;;;;4.00;0.70;;;;;;;21.13;39.28;100629.08;109207;1271;25574;-79
2023/05/29 10:03:37;;;;;;;5.70;1.10;;;;;;;21.19;39.29;100626.23;107623;1270;23087;-79
2023/05/29 10:06:11;;;;;;;38.60;21.40;;;;;;;21.23;38.19;100628.31;107553;1267;22574;-79
2023/05/29 10:08:47;;;;;;;10.00;1.80;;;;;;;21.21;38.48;100625.72;107585;1266;22564;-79
2023/05/29 10:11:24;;;;;;;10.60;1.10;;;;;;;21.27;38.65;100620.97;108873;1270;22571;-79
2023/05/29 10:13:58;;;;;;;6.20;1.20;;;;;;;21.29;38.24;100621.71;107551;1272;23898;-78
2023/05/29 10:16:33;;;;;;;9.90;0.90;;;;;;;21.32;38.23;100616.23;110774;1265;22162;-79
2023/05/29 10:19:07;;;;;;;7.50;0.90;;;;;;;21.35;38.35;100617.98;107942;1272;22591;-78
2023/05/29 10:21:40;;;;;;;7.90;0.90;;;;;;;21.42;38.00;100616.77;108014;1272;22795;-79
2023/05/29 10:24:13;;;;;;;4.90;0.70;;;;;;;21.46;37.43;100620.23;109526;1269;25249;-79
2023/05/29 10:26:48;;;;;;;3.90;0.70;;;;;;;21.49;37.86;100615.16;109748;1268;22517;-79
2023/05/29 10:29:27;;;;;;;8.20;1.00;;;;;;;21.53;38.31;100612.86;107466;1271;22560;-79
2023/05/29 10:32:07;;;;;;;6.40;0.70;;;;;;;21.60;37.71;100613.31;107540;1271;22600;-79
2023/05/29 10:34:45;;;;;;;4.20;1.00;;;;;;;21.59;36.89;100611.48;107649;1272;24260;-78
2023/05/29 10:37:28;;;;;;;6.60;1.20;;;;;;;21.57;36.77;100617.02;107593;1271;23965;-79
2023/05/29 10:40:08;;;;;;;13.20;1.60;;;;;;;21.60;36.61;100618.88;110737;1269;22974;-79
2023/05/29 10:42:47;;;;;;;3.50;0.90;;;;;;;21.61;36.44;100616.95;110723;1268;22268;-79
2023/05/29 10:45:52;;;;;;;15.40;1.60;;;;;;;21.57;36.13;100605.92;110598;1269;205624;-80
2023/05/29 10:48:50;;;;;;;12.90;1.00;;;;;;;21.61;36.71;100606.40;108226;1269;25660;-79
2023/05/29 10:51:33;;;;;;;68.80;5.70;;;;;;;21.68;36.74;100605.39;110745;1269;22962;-80
2023/05/29 10:54:06;;;;;;;9.00;0.80;;;;;;;21.75;36.59;100601.46;110713;1269;22237;-80
2023/05/29 10:56:37;;;;;;;9.20;1.10;;;;;;;21.80;36.33;100604.98;110752;1266;22319;-80
2023/05/29 10:59:10;;;;;;;4.80;0.70;;;;;;;21.80;36.05;100603.99;110718;1266;22183;-80
2023/05/29 11:01:41;;;;;;;12.50;1.70;;;;;;;21.85;36.53;100609.20;107524;1266;24207;-79
2023/05/29 11:04:33;;;;;;;5.90;1.00;;;;;;;21.89;36.12;100608.20;107592;1269;22515;-79
2023/05/29 11:07:06;;;;;;;5.90;1.40;;;;;;;21.88;36.33;100599.61;107609;1271;22521;-79
2023/05/29 11:09:39;;;;;;;6.30;0.90;;;;;;;21.92;36.45;100601.91;110754;1269;22317;-79
2023/05/29 11:12:23;;;;;;;6.10;0.90;;;;;;;22.00;36.69;100604.02;110745;1262;22889;-79
2023/05/29 11:15:03;;;;;;;5.30;1.00;;;;;;;21.98;36.03;100597.44;110699;1269;22238;-79
2023/05/29 11:17:43;;;;;;;;;;;;;;;21.96;36.00;100592.79;110749;1272;22378;-80
2023/05/29 11:20:27;;;;;;;4.60;0.80;;;;;;;21.95;36.33;100589.81;110751;1266;22368;-79
2023/05/29 11:23:07;;;;;;;9.00;0.90;;;;;;;22.03;36.65;100586.27;110670;1272;22168;-79
2023/05/29 11:25:39;;;;;;;5.00;0.70;;;;;;;22.14;36.37;100581.73;110738;1265;22304;-79
2023/05/29 11:28:11;;;;;;;7.50;1.50;;;;;;;22.20;35.95;100578.95;109359;1269;22502;-79
2023/05/29 11:30:47;;;;;;;8.70;0.80;;;;;;;22.24;36.01;100581.39;107508;1269;22533;-79
2023/05/29 11:33:27;;;;;;;3.70;0.80;;;;;;;22.30;35.96;100587.34;110720;1272;22144;-79
2023/05/29 11:36:00;;;;;;;5.30;0.80;;;;;;;22.39;35.79;100588.91;110714;1269;22212;-79
2023/05/29 11:38:31;;;;;;;7.30;0.80;;;;;;;22.44;35.47;100585.47;110761;1260;22321;-80
2023/05/29 11:41:03;;;;;;;5.00;0.90;;;;;;;22.49;35.35;100588.77;110747;1268;22254;-80